createdAt,value
2018-01-22T00:00:12.442Z,-0.40
2018-01-22T00:02:38.834Z,-0.40
2018-01-22T00:05:05.341Z,-0.50
2018-01-22T00:07:31.758Z,-0.50
2018-01-22T00:09:58.300Z,-0.60
2018-01-22T00:12:24.717Z,-0.50
2018-01-22T00:14:51.259Z,-0.50
2018-01-22T00:17:18.511Z,-0.50
2018-01-22T00:19:46.088Z,-0.50
2018-01-22T00:22:12.497Z,-0.40
2018-01-22T00:24:38.975Z,-0.30
2018-01-22T00:27:05.382Z,-0.50
2018-01-22T00:29:31.900Z,-0.40
2018-01-22T00:31:58.231Z,-0.20
2018-01-22T00:34:24.675Z,-0.50
2018-01-22T00:36:51.149Z,2.00
2018-01-22T00:39:18.354Z,-0.50
2018-01-22T00:44:13.224Z,-0.70
2018-01-22T00:46:39.684Z,-0.60
2018-01-22T00:49:06.142Z,-0.20
2018-01-22T00:51:32.575Z,-0.70
2018-01-22T00:53:58.988Z,-0.60
2018-01-22T00:56:26.279Z,-0.60
2018-01-22T00:58:53.616Z,-0.60
2018-01-22T01:01:20.207Z,-0.50
2018-01-22T01:03:47.091Z,-0.40
2018-01-22T01:06:14.244Z,-0.60
2018-01-22T01:08:40.712Z,-0.60
2018-01-22T01:11:07.365Z,-0.60
2018-01-22T01:13:34.177Z,-0.50
2018-01-22T01:16:00.725Z,-0.50
2018-01-22T01:18:27.997Z,-0.50
2018-01-22T01:20:55.424Z,-0.70
2018-01-22T01:23:23.383Z,-0.50
2018-01-22T01:25:51.499Z,-0.50
2018-01-22T01:28:18.504Z,-0.50
2018-01-22T01:30:44.961Z,-0.60
2018-01-22T01:33:11.546Z,-0.50
2018-01-22T01:35:38.121Z,-0.50
2018-01-22T01:38:04.717Z,-0.50
2018-01-22T01:40:45.441Z,-0.50
2018-01-22T01:43:11.915Z,-0.30
2018-01-22T01:45:38.599Z,-0.50
2018-01-22T01:48:05.600Z,-0.50
2018-01-22T01:50:32.696Z,-0.80
2018-01-22T01:52:59.806Z,-0.40
2018-01-22T01:55:27.394Z,-0.40
2018-01-22T01:57:53.756Z,-0.50
2018-01-22T02:00:20.605Z,-0.40
2018-01-22T02:02:47.095Z,-0.60
2018-01-22T02:05:13.552Z,-0.40
2018-01-22T02:07:40.134Z,-0.50
2018-01-22T02:10:06.558Z,-0.40
2018-01-22T02:12:32.969Z,-0.30
2018-01-22T02:14:59.360Z,-0.40
2018-01-22T02:20:11.858Z,-0.30
2018-01-22T02:22:38.275Z,-0.20
2018-01-22T02:25:04.826Z,-0.20
2018-01-22T02:27:31.354Z,-0.30
2018-01-22T02:29:57.836Z,0.00
2018-01-22T02:32:25.082Z,-0.30
2018-01-22T02:34:51.943Z,-0.30
2018-01-22T02:37:18.445Z,-0.20
2018-01-22T02:39:45.819Z,-0.20
2018-01-22T02:42:12.969Z,-0.20
2018-01-22T02:44:39.435Z,-0.10
2018-01-22T02:47:05.964Z,-0.20
2018-01-22T02:49:33.104Z,-0.20
2018-01-22T02:52:00.424Z,-0.20
2018-01-22T02:54:27.368Z,0.10
2018-01-22T02:56:53.869Z,-0.20
2018-01-22T02:59:20.705Z,-0.20
2018-01-22T03:01:47.516Z,-0.30
2018-01-22T03:04:13.951Z,-0.20
2018-01-22T03:06:40.861Z,-0.30
2018-01-22T03:09:07.205Z,-0.40
2018-01-22T03:11:33.693Z,-0.30
2018-01-22T03:14:00.466Z,-0.20
2018-01-22T03:16:26.991Z,-0.30
2018-01-22T03:18:54.621Z,-0.30
2018-01-22T03:21:22.397Z,-0.30
2018-01-22T03:23:48.951Z,-0.30
2018-01-22T03:26:16.268Z,-0.30
2018-01-22T03:28:43.131Z,-0.30
2018-01-22T03:31:09.595Z,-0.30
2018-01-22T03:33:36.052Z,-0.30
2018-01-22T03:36:04.083Z,-0.30
2018-01-22T03:38:30.943Z,-0.30
2018-01-22T03:40:57.371Z,-0.20
2018-01-22T03:43:24.205Z,-0.10
2018-01-22T03:45:50.677Z,-0.30
2018-01-22T03:48:17.505Z,-0.30
2018-01-22T03:50:43.947Z,-0.20
2018-01-22T03:53:10.418Z,-0.40
2018-01-22T03:55:36.905Z,-0.30
2018-01-22T03:58:03.307Z,-0.40
2018-01-22T04:00:30.561Z,-0.30
2018-01-22T04:02:56.904Z,-0.30
2018-01-22T04:05:23.689Z,-0.30
2018-01-22T04:07:50.103Z,-0.30
2018-01-22T04:10:16.476Z,-0.30
2018-01-22T04:12:43.984Z,-0.20
2018-01-22T04:15:10.510Z,-0.20
2018-01-22T04:17:36.950Z,-0.20
2018-01-22T04:20:04.067Z,-0.20
2018-01-22T04:22:30.998Z,-0.20
2018-01-22T04:24:57.412Z,-0.20
2018-01-22T04:27:23.885Z,-0.20
2018-01-22T04:29:51.350Z,-0.20
2018-01-22T04:32:17.780Z,0.00
2018-01-22T04:34:44.546Z,-0.10
2018-01-22T04:37:11.045Z,-0.20
2018-01-22T04:39:37.434Z,-0.20
2018-01-22T04:42:03.906Z,-0.20
2018-01-22T04:44:30.265Z,-0.20
2018-01-22T04:46:56.724Z,0.30
2018-01-22T04:49:23.940Z,-0.20
2018-01-22T04:51:50.323Z,0.20
2018-01-22T04:54:16.728Z,-0.20
2018-01-22T04:56:43.893Z,-0.10
2018-01-22T04:59:11.282Z,-0.10
2018-01-22T05:01:37.725Z,-0.20
2018-01-22T05:04:04.194Z,0.00
2018-01-22T05:06:30.629Z,0.00
2018-01-22T05:08:57.746Z,0.00
2018-01-22T05:11:24.143Z,0.00
2018-01-22T05:13:50.554Z,0.50
2018-01-22T05:16:17.324Z,0.10
2018-01-22T05:18:43.950Z,0.00
2018-01-22T05:21:10.725Z,-0.40
2018-01-22T05:23:37.321Z,0.00
2018-01-22T05:26:03.681Z,0.00
2018-01-22T05:28:31.301Z,0.00
2018-01-22T05:30:58.519Z,0.00
2018-01-22T05:33:24.925Z,0.00
2018-01-22T05:35:52.494Z,0.30
2018-01-22T05:38:19.736Z,0.10
2018-01-22T05:40:46.168Z,0.10
2018-01-22T05:43:12.532Z,0.10
2018-01-22T05:45:39.866Z,0.10
2018-01-22T05:48:07.032Z,0.10
2018-01-22T05:50:33.476Z,0.10
2018-01-22T05:53:01.353Z,0.10
2018-01-22T05:55:29.176Z,0.10
2018-01-22T05:57:56.572Z,-0.30
2018-01-22T06:02:51.264Z,0.20
2018-01-22T06:05:18.804Z,0.20
2018-01-22T06:07:45.344Z,0.10
2018-01-22T06:10:12.922Z,0.10
2018-01-22T06:12:39.453Z,0.40
2018-01-22T06:15:06.277Z,0.30
2018-01-22T06:17:33.083Z,0.20
2018-01-22T06:19:59.862Z,0.30
2018-01-22T06:22:26.744Z,0.20
2018-01-22T06:24:53.374Z,0.20
2018-01-22T06:27:19.847Z,0.10
2018-01-22T06:29:47.763Z,0.20
2018-01-22T06:32:14.125Z,0.20
2018-01-22T06:34:40.528Z,0.20
2018-01-22T06:37:06.926Z,0.20
2018-01-22T06:39:33.274Z,0.40
2018-01-22T06:41:59.784Z,0.30
2018-01-22T06:44:26.224Z,0.10
2018-01-22T06:46:52.722Z,0.30
2018-01-22T06:51:47.680Z,0.10
2018-01-22T06:54:14.486Z,0.30
2018-01-22T06:56:41.707Z,0.40
2018-01-22T06:59:08.185Z,0.40
2018-01-22T07:01:35.425Z,0.40
2018-01-22T07:04:03.641Z,0.30
2018-01-22T07:06:29.958Z,0.70
2018-01-22T07:11:25.601Z,0.30
2018-01-22T07:13:51.950Z,0.30
2018-01-22T07:16:18.369Z,0.40
2018-01-22T07:18:44.891Z,0.40
2018-01-22T07:21:11.345Z,0.30
2018-01-22T07:23:38.122Z,0.00
2018-01-22T07:26:04.995Z,0.40
2018-01-22T07:28:31.449Z,0.50
2018-01-22T07:30:57.889Z,0.50
2018-01-22T07:33:24.893Z,0.60
2018-01-22T07:35:51.676Z,0.60
2018-01-22T07:38:19.542Z,0.70
2018-01-22T07:41:02.241Z,0.40
2018-01-22T07:43:31.874Z,0.50
2018-01-22T07:45:58.216Z,0.60
2018-01-22T07:48:24.947Z,0.60
2018-01-22T07:50:51.280Z,0.60
2018-01-22T07:53:18.488Z,0.60
2018-01-22T07:55:45.314Z,0.60
2018-01-22T07:58:12.479Z,0.70
2018-01-22T08:00:39.281Z,0.70
2018-01-22T08:03:05.998Z,0.70
2018-01-22T08:05:33.061Z,0.60
2018-01-22T08:07:59.769Z,0.70
2018-01-22T08:10:26.220Z,0.70
2018-01-22T08:12:53.327Z,0.70
2018-01-22T08:15:19.693Z,0.40
2018-01-22T08:17:46.206Z,0.80
2018-01-22T08:20:12.594Z,0.70
2018-01-22T08:22:39.052Z,0.80
2018-01-22T08:25:05.518Z,0.80
2018-01-22T08:27:32.367Z,0.80
2018-01-22T08:29:59.581Z,0.90
2018-01-22T08:32:26.191Z,0.90
2018-01-22T08:34:53.038Z,0.90
2018-01-22T08:37:19.816Z,0.90
2018-01-22T08:39:46.712Z,1.00
2018-01-22T08:42:13.489Z,1.10
2018-01-22T08:44:41.560Z,1.00
2018-01-22T08:49:36.089Z,1.20
2018-01-22T08:52:02.599Z,1.10
2018-01-22T08:54:29.360Z,1.20
2018-01-22T08:59:24.252Z,1.20
2018-01-22T09:01:50.691Z,1.30
2018-01-22T09:06:46.346Z,1.30
2018-01-22T09:09:13.076Z,1.40
2018-01-22T09:11:40.873Z,1.40
2018-01-22T09:16:35.411Z,1.30
2018-01-22T09:19:01.927Z,1.40
2018-01-22T09:21:29.532Z,1.50
2018-01-22T09:23:55.888Z,1.50
2018-01-22T09:26:22.374Z,1.50
2018-01-22T09:28:48.959Z,1.40
2018-01-22T09:31:16.603Z,1.50
2018-01-22T09:36:12.017Z,0.90
2018-01-22T09:38:38.477Z,1.60
2018-01-22T09:41:05.647Z,1.70
2018-01-22T09:43:32.050Z,1.80
2018-01-22T09:45:58.920Z,1.60
2018-01-22T09:50:53.799Z,2.00
2018-01-22T09:53:21.330Z,1.70
2018-01-22T09:55:47.743Z,1.70
2018-01-22T09:58:14.535Z,1.70
2018-01-22T10:00:42.300Z,1.60
2018-01-22T10:03:08.755Z,1.70
2018-01-22T10:05:35.538Z,2.10
2018-01-22T10:08:03.432Z,1.70
2018-01-22T10:10:29.906Z,1.80
2018-01-22T10:12:56.518Z,1.80
2018-01-22T10:15:23.666Z,1.80
2018-01-22T10:17:51.144Z,1.90
2018-01-22T10:20:17.523Z,1.90
2018-01-22T10:22:44.296Z,2.00
2018-01-22T10:25:10.890Z,1.90
2018-01-22T10:27:38.604Z,1.80
2018-01-22T10:30:06.047Z,1.90
2018-01-22T10:32:32.602Z,1.90
2018-01-22T10:34:59.138Z,1.90
2018-01-22T10:37:25.952Z,2.10
2018-01-22T10:39:52.382Z,2.00
2018-01-22T10:42:18.812Z,2.10
2018-01-22T10:47:14.834Z,2.10
2018-01-22T10:49:42.149Z,2.10
2018-01-22T10:52:09.321Z,2.30
2018-01-22T10:54:35.969Z,2.10
2018-01-22T10:57:02.484Z,2.20
2018-01-22T10:59:28.918Z,1.90
2018-01-22T11:01:56.555Z,2.20
2018-01-22T11:04:23.495Z,2.80
2018-01-22T11:06:50.882Z,2.20
2018-01-22T11:09:17.407Z,2.30
2018-01-22T11:14:18.942Z,2.30
2018-01-22T11:16:45.408Z,2.30
2018-01-22T11:19:12.182Z,2.10
2018-01-22T11:21:39.511Z,2.30
2018-01-22T11:24:07.622Z,2.30
2018-01-22T11:26:35.474Z,2.40
2018-01-22T11:29:02.209Z,2.60
2018-01-22T11:31:28.853Z,2.50
2018-01-22T11:33:55.272Z,2.50
2018-01-22T11:36:22.515Z,2.60
2018-01-22T11:38:49.788Z,2.50
2018-01-22T11:41:16.362Z,2.60
2018-01-22T11:43:42.966Z,2.70
2018-01-22T11:46:10.182Z,2.70
2018-01-22T11:48:37.383Z,2.60
2018-01-22T11:51:03.941Z,2.60
2018-01-22T11:53:30.521Z,2.50
2018-01-22T11:55:57.816Z,2.50
2018-01-22T11:58:24.444Z,2.40
2018-01-22T12:00:52.392Z,2.50
2018-01-22T12:03:19.680Z,2.40
2018-01-22T12:05:46.080Z,2.50
2018-01-22T12:08:13.391Z,2.30
2018-01-22T12:10:39.824Z,2.20
2018-01-22T12:13:06.715Z,2.20
2018-01-22T12:15:33.249Z,2.20
2018-01-22T12:18:00.252Z,2.10
2018-01-22T12:20:26.682Z,2.10
2018-01-22T12:22:53.407Z,2.10
2018-01-22T12:25:20.300Z,2.00
2018-01-22T12:27:47.910Z,2.20
2018-01-22T12:30:14.356Z,2.10
2018-01-22T12:32:42.468Z,2.10
2018-01-22T12:35:08.882Z,2.10
2018-01-22T12:37:35.408Z,2.10
2018-01-22T12:40:03.025Z,2.10
2018-01-22T12:42:29.635Z,2.40
2018-01-22T12:44:56.137Z,2.10
2018-01-22T12:47:22.640Z,2.10
2018-01-22T12:49:50.043Z,2.20
2018-01-22T12:52:18.044Z,2.00
2018-01-22T12:54:44.644Z,2.10
2018-01-22T12:57:11.854Z,2.20
2018-01-22T12:59:38.760Z,2.00
2018-01-22T13:02:05.357Z,2.00
2018-01-22T13:04:32.446Z,1.20
2018-01-22T13:06:58.943Z,2.00
2018-01-22T13:11:55.348Z,2.10
2018-01-22T13:14:22.445Z,2.10
2018-01-22T13:16:49.074Z,2.10
2018-01-22T13:19:15.608Z,2.00
2018-01-22T13:21:43.166Z,2.00
2018-01-22T13:24:10.509Z,2.00
2018-01-22T13:26:38.615Z,1.90
2018-01-22T13:29:04.978Z,2.00
2018-01-22T13:31:32.122Z,2.00
2018-01-22T13:36:27.388Z,2.00
2018-01-22T13:38:54.167Z,1.40
2018-01-22T13:41:22.100Z,2.10
2018-01-22T13:43:48.864Z,2.10
2018-01-22T13:46:15.236Z,2.10
2018-01-22T13:48:42.389Z,2.20
2018-01-22T13:51:09.533Z,2.20
2018-01-22T13:53:36.436Z,2.20
2018-01-22T13:56:02.891Z,2.30
2018-01-22T13:58:29.516Z,2.30
2018-01-22T14:00:56.363Z,2.20
2018-01-22T14:03:22.789Z,2.30
2018-01-22T14:08:17.341Z,2.30
2018-01-22T14:10:44.583Z,2.10
2018-01-22T14:13:11.806Z,2.10
2018-01-22T14:15:38.438Z,2.10
2018-01-22T14:18:06.501Z,2.00
2018-01-22T14:23:01.100Z,1.90
2018-01-22T14:25:28.776Z,1.80
2018-01-22T14:27:55.882Z,1.80
2018-01-22T14:30:22.243Z,1.90
2018-01-22T14:32:49.450Z,1.70
2018-01-22T14:35:16.374Z,1.60
2018-01-22T14:37:42.831Z,1.70
2018-01-22T14:40:09.525Z,1.70
2018-01-22T14:42:36.370Z,1.60
2018-01-22T14:45:04.126Z,1.60
2018-01-22T14:47:31.081Z,1.60
2018-01-22T14:52:26.372Z,1.60
2018-01-22T14:54:53.142Z,1.50
2018-01-22T14:57:20.266Z,1.50
2018-01-22T14:59:48.444Z,1.50
2018-01-22T15:02:14.909Z,1.40
2018-01-22T15:48:37.431Z,0.80
2018-01-22T15:51:04.626Z,0.80
2018-01-22T15:53:31.775Z,0.80
2018-01-22T15:58:26.726Z,0.80
2018-01-22T16:00:53.970Z,0.70
2018-01-22T16:03:21.682Z,0.70
2018-01-22T16:05:48.538Z,0.50
2018-01-22T16:08:15.416Z,0.80
2018-01-22T16:10:43.515Z,0.70
2018-01-22T16:13:12.024Z,0.70
2018-01-22T16:15:38.591Z,0.60
2018-01-22T16:20:33.706Z,0.50
2018-01-22T16:25:29.142Z,0.80
2018-01-22T16:30:25.397Z,0.60
2018-01-22T16:32:52.077Z,0.60
2018-01-22T16:42:44.567Z,0.60
2018-01-22T16:45:12.450Z,0.60
2018-01-22T16:47:46.594Z,0.70
2018-01-22T16:52:42.731Z,0.40
2018-01-22T16:55:10.877Z,0.70
2018-01-22T16:57:39.012Z,0.60
2018-01-22T17:00:07.670Z,0.60
2018-01-22T17:02:36.082Z,0.70
2018-01-22T17:05:03.715Z,0.70
2018-01-22T17:07:31.558Z,0.70
2018-01-22T17:09:58.838Z,0.60
2018-01-22T17:12:27.181Z,0.70
2018-01-22T17:17:23.461Z,0.70
2018-01-22T17:19:51.229Z,0.70
2018-01-22T17:24:46.542Z,0.70
2018-01-22T17:27:14.197Z,0.70
2018-01-22T17:29:41.377Z,0.70
2018-01-22T17:32:08.563Z,1.40
2018-01-22T17:34:35.706Z,0.70
2018-01-22T17:37:02.170Z,0.70
2018-01-22T17:41:56.862Z,0.60
2018-01-22T17:46:51.743Z,0.60
2018-01-22T17:54:15.714Z,0.50
2018-01-22T17:56:43.246Z,0.50
2018-01-22T17:59:10.401Z,0.50
2018-01-22T18:01:36.833Z,0.50
2018-01-22T18:04:04.085Z,2.60
2018-01-22T18:06:30.930Z,0.30
2018-01-22T18:08:58.223Z,0.30
2018-01-22T18:11:25.063Z,0.30
2018-01-22T18:13:52.089Z,0.40
2018-01-22T18:16:19.074Z,0.30
2018-01-22T18:18:46.351Z,0.30
2018-01-22T18:21:14.631Z,0.30
2018-01-22T18:23:41.151Z,0.30
2018-01-22T19:48:51.895Z,0.20
2018-01-22T20:47:35.780Z,-0.60
2018-01-22T21:18:33.239Z,0.10
2018-01-22T21:23:33.631Z,0.10
2018-01-22T21:36:17.986Z,0.10
2018-01-22T21:43:46.510Z,0.10
2018-01-22T21:46:13.310Z,0.10
2018-01-22T21:48:40.180Z,0.10
2018-01-22T21:51:06.801Z,0.10
2018-01-22T21:53:33.448Z,0.00
2018-01-22T21:55:59.830Z,0.00
2018-01-22T21:58:26.585Z,0.10
2018-01-22T22:00:53.728Z,0.10
2018-01-22T22:03:20.867Z,0.00
2018-01-22T22:05:47.505Z,0.10
2018-01-22T22:08:14.731Z,0.10
2018-01-22T22:10:41.188Z,0.10
2018-01-22T22:13:07.802Z,0.10
2018-01-22T22:15:34.665Z,0.00
2018-01-22T22:18:02.279Z,0.00
2018-01-22T22:20:30.339Z,0.00
2018-01-22T22:22:56.793Z,0.10
2018-01-22T22:25:23.201Z,0.20
2018-01-22T22:27:50.512Z,0.00
2018-01-22T22:30:17.015Z,0.20
2018-01-22T22:32:43.426Z,0.10
2018-01-22T22:35:09.855Z,0.10
2018-01-22T22:37:37.017Z,0.10
2018-01-22T22:40:03.548Z,0.30
2018-01-22T22:42:29.997Z,0.20
2018-01-22T22:44:56.690Z,0.20
2018-01-22T22:47:23.165Z,0.20
2018-01-22T22:49:49.932Z,0.20
2018-01-22T22:52:16.273Z,0.10
2018-01-22T22:54:43.090Z,0.10
2018-01-22T22:57:09.693Z,0.10
2018-01-22T22:59:36.139Z,0.20
2018-01-22T23:02:02.777Z,0.00
2018-01-22T23:04:29.400Z,0.20
2018-01-22T23:06:55.915Z,0.20
2018-01-22T23:09:22.726Z,0.20
2018-01-22T23:11:50.004Z,0.10
2018-01-22T23:14:16.424Z,0.10
2018-01-22T23:16:43.962Z,0.10
2018-01-22T23:21:39.264Z,0.20
2018-01-22T23:24:06.476Z,0.20
2018-01-22T23:26:32.884Z,0.20
2018-01-22T23:28:59.280Z,0.20
2018-01-22T23:31:25.788Z,0.20
2018-01-22T23:33:52.247Z,0.00
2018-01-22T23:36:18.679Z,0.10
2018-01-22T23:38:45.215Z,0.20
2018-01-22T23:41:11.716Z,0.00
2018-01-22T23:43:38.155Z,0.00
2018-01-22T23:46:04.733Z,-0.10
2018-01-22T23:48:31.173Z,-0.60
2018-01-22T23:50:57.592Z,-0.30
2018-01-22T23:53:24.033Z,-0.30
2018-01-22T23:55:51.189Z,-0.40
2018-01-22T23:58:17.556Z,-0.40
